Latest Weather Observations for Gladstone

IDQ60801

Issued at 4:32 pm EST Sunday 2 August 2015 (issued every 30 minutes, with the page automatically refreshed every 10 minutes)

About weather observations | Map of weather stations | Latest weather observations for QLD | Other Formats
Station Details ID: 039123 Name: GLADSTONE RADAR Lat: -23.86 Lon: 151.26 Height: 74.5 m
Data from the previous 72 hours. | See also: Recent months at Gladstone
Date/Time
EST
Temp
°C
App
Temp
°C
Dew
Point
Rel
Hum
%
Delta-T
°C
Wind Press
QNH
hPa
Press
MSL
hPa
Rain
since 9 am
mm
Dir
 
Spd
km/h
Gust
km/h
Spd
kts
Gust
kts
02/04:30pm 22.0 21.1 14.9 64 4.2 ENE 13 17 7 9 1020.3 1020.1 0.0
02/04:00pm 22.6 21.5 14.2 59 4.9 NE 13 20 7 11 1020.2 1020.0 0.0
02/03:30pm 23.6 22.5 14.3 56 5.5 ENE 13 19 7 10 1020.3 1020.1 0.0
02/03:00pm 24.1 23.0 14.2 54 5.8 ENE 13 20 7 11 1020.3 1020.1 0.0
02/02:30pm 24.9 23.8 14.4 52 6.3 ENE 13 17 7 9 1020.6 1020.4 0.0
02/02:00pm 24.9 23.7 14.1 51 6.4 ENE 13 19 7 10 1020.9 1020.7 0.0
02/01:30pm 25.8 25.5 14.3 49 6.9 NE 9 15 5 8 1021.2 1021.0 0.0
02/01:00pm 24.6 24.0 13.5 50 6.5 ENE 9 13 5 7 1021.7 1021.5 0.0
02/12:30pm 25.3 24.6 14.4 50 6.5 ENE 11 17 6 9 1022.3 1022.1 0.0
02/12:00pm 24.9 24.3 14.7 53 6.1 E 11 17 6 9 1022.6 1022.4 0.0
02/11:30am 24.4 23.7 14.2 53 6.0 E 11 17 6 9 1023.0 1022.8 0.0
02/11:00am 23.9 23.3 14.6 56 5.5 E 11 17 6 9 1023.4 1023.2 0.0
02/10:30am 23.6 23.5 14.9 58 5.2 E 9 15 5 8 1023.6 1023.4 0.0
02/10:00am 22.8 23.1 15.1 62 4.6 ENE 7 11 4 6 1023.6 1023.4 0.0
02/09:30am 21.9 21.9 15.3 66 3.9 E 9 15 5 8 1023.6 1023.4 0.0
02/09:00am 19.8 20.3 15.0 74 2.8 SE 6 11 3 6 1023.5 1023.3 0.0
02/08:30am 17.8 18.1 13.5 76 2.4 SE 4 7 2 4 1023.1 1022.9 0.0
02/08:00am 17.1 17.8 13.4 79 2.1 E 2 6 1 3 1022.9 1022.7 0.0
02/07:30am 16.9 16.7 13.6 81 1.9 SSE 7 9 4 5 1022.7 1022.5 0.0
02/07:00am 16.6 15.7 13.7 83 1.6 S 11 15 6 8 1022.4 1022.2 0.0
02/06:30am 16.4 15.0 13.5 83 1.6 S 13 17 7 9 1022.2 1022.0 0.0
02/06:00am 16.3 14.8 13.2 82 1.7 S 13 17 7 9 1022.2 1022.0 0.0
02/05:30am 16.6 15.2 13.5 82 1.7 S 13 15 7 8 1021.9 1021.7 0.0
02/05:00am 16.4 15.3 13.1 81 1.8 S 11 15 6 8 1021.8 1021.6 0.0
02/04:30am 16.3 14.7 12.7 79 2.0 S 13 15 7 8 1021.8 1021.6 0.0
02/04:00am 16.3 15.1 12.7 79 2.0 S 11 15 6 8 1021.9 1021.7 0.0
02/03:30am 16.3 15.4 12.5 78 2.1 SSE 9 11 5 6 1022.1 1021.9 0.0
02/03:00am 16.8 15.4 12.3 75 2.5 SSE 11 17 6 9 1022.4 1022.2 0.0
02/02:30am 17.1 15.4 12.4 74 2.6 SSE 13 19 7 10 1022.3 1022.1 0.0
02/02:00am 17.1 15.4 12.4 74 2.6 SSE 13 17 7 9 1022.5 1022.3 0.0
02/01:30am 17.1 15.3 12.2 73 2.7 SSE 13 19 7 10 1022.6 1022.4 0.0
02/01:00am 17.2 15.5 12.3 73 2.7 SSE 13 17 7 9 1022.7 1022.5 0.0
02/12:30am 17.2 15.5 12.3 73 2.7 SSE 13 17 7 9 1022.7 1022.5 0.0
02/12:00am 17.3 15.8 13.2 77 2.3 SSE 13 17 7 9 1022.8 1022.6 0.0
 
Date/Time
EST
Temp
°C
App
Temp
°C
Dew
Point
Rel
Hum
%
Delta-T
°C
Wind Press
QNH
hPa
Press
MSL
hPa
Rain
since 9 am
mm
Dir
 
Spd
km/h
Gust
km/h
Spd
kts
Gust
kts
01/11:30pm 17.2 15.5 13.5 79 2.1 SE 15 19 8 10 1022.8 1022.6 0.0
01/11:00pm 17.3 16.0 13.8 80 2.0 SSE 13 17 7 9 1022.9 1022.7 0.0
01/10:30pm 17.2 16.1 14.3 83 1.7 SSE 13 17 7 9 1023.1 1022.9 0.0
01/10:00pm 17.3 16.8 14.9 86 1.4 SSE 11 15 6 8 1023.1 1022.9 0.0
01/09:30pm 17.5 17.3 15.7 89 1.1 ESE 11 15 6 8 1023.0 1022.8 0.0
01/09:00pm 17.7 17.0 15.3 86 1.4 ESE 13 15 7 8 1023.0 1022.8 0.0
01/08:30pm 17.7 17.5 15.7 88 1.2 ESE 11 13 6 7 1023.0 1022.8 0.0
01/08:00pm 17.5 17.3 15.8 90 1.0 E 11 11 6 6 1022.9 1022.7 0.0
01/07:30pm 17.5 17.8 16.0 91 0.9 ENE 9 11 5 6 1022.5 1022.3 0.0
01/07:00pm 17.6 17.5 15.9 90 1.0 ENE 11 13 6 7 1022.1 1021.9 0.0
01/06:30pm 17.7 17.5 15.7 88 1.2 ENE 11 13 6 7 1021.7 1021.5 0.0
01/06:00pm 18.2 17.8 15.3 83 1.7 ENE 11 15 6 8 1021.5 1021.3 0.0
01/05:30pm 18.9 18.4 14.8 77 2.4 ENE 11 17 6 9 1021.2 1021.0 0.0
01/05:00pm 19.8 18.6 14.0 69 3.3 ENE 13 19 7 10 1021.0 1020.8 0.0
01/04:30pm 21.3 20.2 13.0 59 4.7 ENE 11 17 6 9 1021.1 1020.9 0.0
01/04:00pm 22.3 20.6 12.5 53 5.6 ENE 13 20 7 11 1021.0 1020.8 0.0
01/03:30pm 23.0 21.3 12.3 51 6.1 ENE 13 17 7 9 1021.0 1020.8 0.0
01/03:00pm 23.3 21.4 12.9 52 6.0 NE 15 20 8 11 1021.0 1020.8 0.0
01/02:30pm 24.1 22.6 13.0 50 6.4 NE 13 19 7 10 1021.2 1021.0 0.0
01/02:00pm 24.1 22.7 13.3 51 6.3 ENE 13 22 7 12 1021.3 1021.1 0.0
01/01:30pm 24.3 22.0 12.9 49 6.6 ENE 17 22 9 12 1021.6 1021.4 0.0
01/01:00pm 24.9 22.5 12.5 46 7.1 ENE 17 24 9 13 1021.9 1021.7 0.0
01/12:30pm 24.8 22.8 12.7 47 7.0 E 15 20 8 11 1022.5 1022.3 0.0
01/12:00pm 25.0 23.3 12.6 46 7.1 ENE 13 17 7 9 1022.9 1022.7 0.0
01/11:30am 24.5 22.3 12.1 46 7.1 ENE 15 20 8 11 1023.3 1023.1 0.0
01/11:00am 24.3 22.6 12.6 48 6.7 ENE 13 19 7 10 1023.6 1023.4 0.0
01/10:30am 23.4 22.8 13.6 54 5.7 ENE 9 15 5 8 1023.8 1023.6 0.0
01/10:00am 22.7 22.4 13.2 55 5.5 E 7 11 4 6 1023.9 1023.7 0.0
01/09:30am 20.0 19.3 11.5 58 4.7 S 6 9 3 5 1024.0 1023.8 0.0
01/09:00am 17.8 17.8 11.1 65 3.6 S 2 6 1 3 1023.9 1023.7 0.0
01/08:30am 16.3 16.1 10.4 68 3.1 E 2 6 1 3 1023.5 1023.3 0.0
01/08:00am 15.9 15.1 9.8 67 3.2 E 4 7 2 4 1023.2 1023.0 0.0
01/07:30am 15.5 13.9 8.0 61 3.8 SSE 6 7 3 4 1023.0 1022.8 0.0
01/07:00am 15.1 12.8 7.6 61 3.7 S 9 9 5 5 1022.8 1022.6 0.0
01/06:30am 15.4 13.2 7.7 60 3.9 S 9 11 5 6 1022.5 1022.3 0.0
01/06:00am 15.9 14.1 9.3 65 3.4 SSW 9 11 5 6 1022.1 1021.9 0.0
01/05:30am 15.8 13.5 9.0 64 3.5 SSW 11 13 6 7 1021.9 1021.7 0.0
01/05:00am 15.3 12.5 7.1 58 4.0 SSW 11 13 6 7 1021.6 1021.4 0.0
01/04:30am 16.4 13.8 7.9 57 4.3 SSW 11 17 6 9 1021.6 1021.4 0.0
01/04:00am 15.7 12.8 8.0 60 3.9 SW 13 15 7 8 1021.6 1021.4 0.0
01/03:30am 15.0 12.5 8.3 64 3.4 SW 11 13 6 7 1021.7 1021.5 0.0
01/03:00am 15.4 13.7 9.7 69 3.0 SW 9 11 5 6 1021.7 1021.5 0.0
01/02:30am 16.0 15.1 11.2 73 2.6 SW 7 9 4 5 1021.7 1021.5 0.0
01/02:00am 16.2 15.8 12.4 78 2.1 SW 6 6 3 3 1021.7 1021.5 0.0
01/01:30am 16.6 16.2 12.4 76 2.3 S 6 7 3 4 1021.8 1021.6 0.0
01/01:00am 16.7 15.8 12.7 77 2.2 S 9 9 5 5 1022.1 1021.9 0.0
01/12:30am 16.8 16.1 13.3 80 2.0 SSE 9 11 5 6 1022.2 1022.0 0.0
01/12:00am 16.4 16.0 13.1 81 1.8 S 7 9 4 5 1022.4 1022.2 0.0
 
Date/Time
EST
Temp
°C
App
Temp
°C
Dew
Point
Rel
Hum
%
Delta-T
°C
Wind Press
QNH
hPa
Press
MSL
hPa
Rain
since 9 am
mm
Dir
 
Spd
km/h
Gust
km/h
Spd
kts
Gust
kts
31/11:30pm 17.1 16.5 13.6 80 2.0 SSE 9 13 5 7 1022.3 1022.1 0.0
31/11:00pm 17.0 16.0 13.3 79 2.1 S 11 15 6 8 1022.5 1022.3 0.0
31/10:30pm 16.9 15.5 13.4 80 2.0 SSE 13 19 7 10 1022.4 1022.2 0.0
31/10:00pm 16.9 15.9 14.7 87 1.3 SSE 13 15 7 8 1022.3 1022.1 0.0
31/09:30pm 17.6 17.6 15.2 86 1.4 SSE 9 13 5 7 1022.4 1022.2 0.0
31/09:00pm 17.7 17.7 15.1 85 1.5 SSE 9 11 5 6 1022.2 1022.0 0.0
31/08:30pm 17.7 18.0 15.1 85 1.5 SE 7 9 4 5 1022.1 1021.9 0.0
31/08:00pm 17.4 17.8 15.2 87 1.3 E 7 9 4 5 1021.9 1021.7 0.0
31/07:30pm 17.1 17.1 15.1 88 1.2 ENE 9 9 5 5 1021.7 1021.5 0.0
31/07:00pm 17.1 17.4 14.9 87 1.3 NE 7 7 4 4 1021.3 1021.1 0.0
31/06:30pm 17.3 17.3 14.2 82 1.8 NE 7 9 4 5 1021.0 1020.8 0.0
31/06:00pm 17.7 17.4 13.4 76 2.4 NE 7 13 4 7 1020.8 1020.6 0.0
31/05:30pm 18.6 17.5 12.1 66 3.6 NE 9 13 5 7 1020.5 1020.3 0.0
31/05:00pm 19.7 17.5 10.9 57 4.8 ENE 13 19 7 10 1020.4 1020.2 0.0
31/04:30pm 20.9 18.7 9.5 48 6.1 ENE 11 19 6 10 1020.2 1020.0 0.0
31/04:00pm 21.5 18.5 9.4 46 6.5 ENE 15 22 8 12 1020.2 1020.0 0.0
31/03:30pm 22.6 19.5 9.0 42 7.3 ENE 15 24 8 13 1020.5 1020.3 0.0
31/03:00pm 23.6 21.0 7.7 36 8.4 NE 11 17 6 9 1020.7 1020.5 0.0
31/02:30pm 24.4 21.9 8.0 35 8.7 NE 11 19 6 10 1020.8 1020.6 0.0
31/02:00pm 24.8 22.7 8.3 35 8.8 NE 9 19 5 10 1021.0 1020.8 0.0
31/01:30pm 24.1 20.2 7.3 34 8.8 ENE 17 24 9 13 1021.3 1021.1 0.0
31/01:00pm 24.8 22.0 8.7 36 8.7 ENE 13 22 7 12 1021.8 1021.6 0.0
31/12:30pm 24.4 21.5 9.6 39 8.1 ENE 15 22 8 12 1022.3 1022.1 0.0
31/12:00pm 23.7 20.1 10.0 42 7.5 ENE 19 24 10 13 1023.0 1022.8 0.0
31/11:30am 23.8 21.1 11.8 47 6.8 ENE 17 22 9 12 1023.4 1023.2 0.0
31/11:00am 23.9 22.2 12.5 49 6.5 ENE 13 22 7 12 1023.8 1023.6 0.0
31/10:30am 23.1 20.9 10.9 46 6.8 ESE 13 20 7 11 1024.3 1024.1 0.0
31/10:00am 21.7 20.1 11.7 53 5.6 SE 11 19 6 10 1024.4 1024.2 0.0
31/09:30am 20.7 19.1 12.7 60 4.5 ESE 13 19 7 10 1024.4 1024.2 0.0
31/09:00am 20.0 18.5 13.0 64 4.0 SE 13 17 7 9 1024.2 1024.0 0.0
31/08:30am 18.5 17.3 12.9 70 3.2 SSE 11 19 6 10 1024.1 1023.9 0.0
31/08:00am 16.8 15.4 12.1 74 2.6 SSE 11 17 6 9 1023.7 1023.5 0.0
31/07:30am 15.9 15.2 11.9 77 2.2 SSE 7 15 4 8 1023.4 1023.2 0.0
31/07:00am 15.2 12.9 11.8 80 1.8 SSW 15 19 8 10 1023.5 1023.3 0.0
31/06:30am 14.2 11.8 11.4 83 1.5 SW 15 20 8 11 1023.3 1023.1 0.0
31/06:00am 14.0 11.6 11.5 85 1.3 SW 15 19 8 10 1023.1 1022.9 0.0
31/05:30am 14.5 12.5 11.6 83 1.6 SSW 13 15 7 8 1022.5 1022.3 0.0
31/05:00am 15.0 13.4 11.6 80 1.8 S 11 15 6 8 1022.3 1022.1 0.0
31/04:30am 15.3 13.4 11.9 80 1.8 SSE 13 15 7 8 1022.0 1021.8 0.0
31/04:00am 15.4 13.6 12.2 81 1.7 S 13 17 7 9 1022.1 1021.9 0.0
31/03:30am 14.7 13.3 12.2 85 1.4 SSW 11 15 6 8 1022.5 1022.3 0.0
31/03:00am 14.7 13.2 12.0 84 1.5 SW 11 15 6 8 1022.6 1022.4 0.0
31/02:30am 15.5 14.2 12.6 83 1.6 SSW 11 17 6 9 1022.7 1022.5 0.0
31/02:00am 16.1 14.2 13.0 82 1.7 S 15 24 8 13 1022.8 1022.6 0.0
31/01:30am 15.9 13.7 13.2 84 1.5 SSE 17 24 9 13 1022.8 1022.6 0.0
31/01:00am 16.2 13.9 13.1 82 1.7 SSE 17 24 9 13 1023.3 1023.1 0.0
31/12:30am 16.2 14.3 12.9 81 1.8 SSE 15 24 8 13 1023.8 1023.6 0.0
31/12:00am 16.3 14.3 12.7 79 2.0 SSE 15 22 8 12 1024.1 1023.9 0.0
 
Date/Time
EST
Temp
°C
App
Temp
°C
Dew
Point
Rel
Hum
%
Delta-T
°C
Wind Press
QNH
hPa
Press
MSL
hPa
Rain
since 9 am
mm
Dir
 
Spd
km/h
Gust
km/h
Spd
kts
Gust
kts
30/11:30pm 16.6 14.6 12.6 77 2.2 SSE 15 22 8 12 1024.3 1024.1 0.0
30/11:00pm 16.8 14.7 12.3 75 2.5 SSE 15 19 8 10 1024.7 1024.5 0.0
30/10:30pm 16.4 15.3 12.0 75 2.4 SW 9 11 5 6 1025.1 1024.9 0.0
30/10:00pm 17.0 15.2 12.1 73 2.7 S 13 17 7 9 1024.9 1024.7 0.0
30/09:30pm 16.8 15.4 12.1 74 2.6 SSW 11 17 6 9 1024.8 1024.6 0.0
30/09:00pm 17.2 15.1 12.5 74 2.6 SSE 15 20 8 11 1024.4 1024.2 0.0
30/08:30pm 17.5 15.3 13.2 76 2.4 SE 17 22 9 12 1024.2 1024.0 0.0
30/08:00pm 17.7 15.9 14.4 81 1.9 SE 17 24 9 13 1023.8 1023.6 0.0
30/07:30pm 17.9 15.8 14.6 81 1.9 ESE 19 28 10 15 1023.5 1023.3 0.0
30/07:00pm 18.0 15.6 14.5 80 2.0 E 20 28 11 15 1023.3 1023.1 0.0
30/06:30pm 18.4 14.0 14.1 76 2.5 E 30 37 16 20 1023.0 1022.8 0.0
30/06:00pm 18.4 14.8 14.1 76 2.5 E 26 37 14 20 1023.1 1022.9 0.0
30/05:30pm 18.7 14.8 13.3 71 3.1 E 26 32 14 17 1022.9 1022.7 0.0
30/05:00pm 19.3 16.0 12.8 66 3.7 E 22 32 12 17 1022.8 1022.6 0.0

Other Formats:

Comma delimited format used in spreadsheet applications
http://www.bom.gov.au/fwo/IDQ60801/IDQ60801.94380.axf

JavaScript Object Notation format (JSON) in row-major order
http://www.bom.gov.au/fwo/IDQ60801/IDQ60801.94380.json